SVA1676 OEAB-OERK
Flight info
| Callsign | SVA1676 |
|---|---|
| Flight time | N/A |
| Altitude | 37000 |
| Route | DUMSI H75 IRBAB Q313 UMRAN H76 MOBAG |
| Aircraft | A320/M-SDE3FGHIRWY/LB1 |
Departure
| Time | N/A |
|---|---|
| Airport | Abha International Airport (OEAB) |
Arrival
| Time | 2026-04-30 18:03 |
|---|---|
| Airport | King Khalid International Airport (OERK) |
| Time | Latitude | Longitude | Altitude | Speed | Heading |
|---|---|---|---|---|---|
| 2026-04-30 17:39 | 23.71427 | 45.70962 | 31251 ft | 474 kts | 40° |
| 2026-04-30 17:41 | 24.45562 | 46.27983 | 18060 ft | 363 kts | 23° |
| 2026-04-30 17:42 | 24.62975 | 46.38232 | 15274 ft | 348 kts | 24° |
| 2026-04-30 17:42 | 24.86185 | 46.29971 | 11002 ft | 304 kts | 326° |
| 2026-04-30 17:43 | 25.00626 | 46.20751 | 7906 ft | 299 kts | 329° |
| 2026-04-30 17:44 | 25.08036 | 46.16770 | 6274 ft | 290 kts | 360° |
| 2026-04-30 17:44 | 25.13857 | 46.17956 | 5736 ft | 284 kts | 16° |
| 2026-04-30 17:46 | 25.23466 | 46.20365 | 5737 ft | 283 kts | 16° |
| 2026-04-30 17:47 | 25.31110 | 46.22277 | 5738 ft | 282 kts | 17° |
| 2026-04-30 17:48 | 25.38273 | 46.24071 | 5740 ft | 233 kts | 17° |
| 2026-04-30 17:48 | 25.41882 | 46.26498 | 5736 ft | 188 kts | 63° |
| 2026-04-30 17:49 | 25.44374 | 46.31259 | 5741 ft | 185 kts | 64° |
| 2026-04-30 17:50 | 25.45540 | 46.36364 | 5746 ft | 178 kts | 123° |
| 2026-04-30 17:51 | 25.42417 | 46.38707 | 5746 ft | 184 kts | 146° |
| 2026-04-30 17:52 | 25.39095 | 46.40821 | 5746 ft | 184 kts | 146° |
| 2026-04-30 17:53 | 25.33538 | 46.44360 | 5748 ft | 184 kts | 146° |
| 2026-04-30 17:54 | 25.29108 | 46.47168 | 5744 ft | 183 kts | 147° |
| 2026-04-30 17:55 | 25.24688 | 46.49973 | 5749 ft | 183 kts | 147° |
| 2026-04-30 17:56 | 25.20630 | 46.52554 | 5752 ft | 183 kts | 147° |
| 2026-04-30 17:57 | 25.17331 | 46.54651 | 5753 ft | 183 kts | 147° |
| 2026-04-30 17:58 | 25.14130 | 46.56683 | 5672 ft | 168 kts | 147° |
| 2026-04-30 17:59 | 25.10093 | 46.59248 | 4880 ft | 167 kts | 146° |
| 2026-04-30 18:00 | 25.06101 | 46.61780 | 4027 ft | 165 kts | 145° |
| 2026-04-30 18:00 | 25.03392 | 46.63495 | 3462 ft | 139 kts | 144° |
| 2026-04-30 18:01 | 25.01731 | 46.64549 | 3118 ft | 137 kts | 144° |
| 2026-04-30 18:02 | 24.99234 | 46.66130 | 2587 ft | 139 kts | 144° |
| 2026-04-30 18:02 | 24.96711 | 46.67731 | 2036 ft | 135 kts | 147° |
| 2026-04-30 18:03 | 24.95482 | 46.68631 | 2029 ft | 13 kts | 103° |
| 2026-04-30 18:04 | 24.95522 | 46.68798 | 2034 ft | 11 kts | 68° |
| 2026-04-30 18:05 | 24.95447 | 46.68875 | 2036 ft | 5 kts | 151° |
| 2026-04-30 18:06 | 24.95279 | 46.68981 | 2032 ft | 24 kts | 151° |
| 2026-04-30 18:07 | 24.94523 | 46.69543 | 2039 ft | 14 kts | 60° |
| 2026-04-30 18:08 | 24.94708 | 46.69893 | 2034 ft | 23 kts | 59° |
| 2026-04-30 18:09 | 24.95065 | 46.70573 | 2036 ft | 27 kts | 60° |
| 2026-04-30 18:10 | 24.94993 | 46.70993 | 2034 ft | 23 kts | 150° |
| 2026-04-30 18:11 | 24.94708 | 46.71266 | 2037 ft | 14 kts | 59° |
| 2026-04-30 18:11 | 24.94727 | 46.71300 | 2037 ft | 0 kts | 60° |